Pagrindinis puslapis
METAR-TAF:

METAR-TAF

Oro uostai :

Komodoro Rivadavija, Argentina

platuma: 45-47S, ilguma: 067-30W, Aukštis: 58 m

Dabartinis oras

Ataskaita buvo paskelbta 10 minutes, ne 21:00 UTC
Vėjas 16 kt iš Šiaurės Rytų
Temperatūra 17°C
Drėgmė 42%
Slėgis 1009 hPa
Matomumas 10 km arba daugiau
Išsisklaidę debesys ne aukštis 4000 ft
Išsisklaidę debesys ne aukštis 20000 ft

METAR: SAVC 122100Z 05016KT 9999 SCT040 SCT200 17/04 Q1009

Laikas: 18:10 (21:10 UTC)

Prognozė

Ataskaita buvo paskelbta 4 valandos ir 10 minutes, ne 17:00 UTC
Prognozė galioja nuo 12 metu 18 UTC su 13 metu 18 UTC
Vėjas 10 kt iš Rytų/Pietryčių
Matomumas 10 km arba daugiau
Išsisklaidę debesys ne aukštis 3000 ft
Tapsmas
nuo 12 metu 19 UTC su 12 metu 21 UTC
Vėjas 15 kt iš Šiaurės Rytų su gūsio iki 30 kt
Tapsmas
nuo 13 metu 01 UTC su 13 metu 03 UTC
Vėjas 15 kt iš Vakarų
Matomumas 10 km arba daugiau
nėra debesų žemiau 1500 m ir nėra kamuolinių lietaus debesų

TAF: SAVC 121700Z 1218/1318 11010KT 9999 SCT030 TX18/1218Z TN11/1310Z BECMG 1219/1221 05015G30KT BECMG 1301/1303 27015KT CAVOK

Orai ataskaitas ir orų prognozės (METAR, TAF).

turimą stotys yra geltonos ir raudonos taškus žemėlapyje.

Perkelti pele per norėdami pamatyti stoties vardą.

Tada spustelėkite, norėdami matyti oro stebėjimo ir prognozės.

Norėdami pakeisti žemėlapį: spustelėkite ant žalios mygtukų su juodo kryžiaus žemyn,; žalią mygtuką su brūkšneliu, jei norite nutolinti; arba žalių rodyklių gretimoms žemėlapius.


METAR-TAF: